Fairmont, Missouri
Current Conditions -  °F | °C
As of 6:55 AM on Saturday 25 Oct 2014 (Local Time) from KEOK Reporting Station
Moderate Fog Moderate Fog  
Wind Chill: 52°   Ceiling: 200
Heat Index: 52°   Visibility: 0mi
Dew Point: 52°   Wind: 5mph
Humidity: 100%   Direction: 250°WSW
Pressure: 30"   Gusts: NA
Location:  40.3399°N, 91.8916°W
Report Text: KEOK 251155Z AUTO 25004KT M1/4SM FG OVC002 11/11 A3000 RMK AO2
Loading
Personal Weather Stations






























Interactive Weather Map
Tropical Storm Tracking
New forecast layout! Learn more

10-Day Weather Forecast

Advertisements
Track Severe Weather on mobile